Time;durP1;ratioP1;P1;durP2;ratioP2;P2;SDS_P1;SDS_P2;PMS_P1;PMS_P2;Temp;Humidity;BMP_temperature;BMP_pressure;BME280_temperature;BME280_humidity;BME280_pressure;Samples;Min_cycle;Max_cycle;Signal;HPM_P1;HPM_P2
2021/01/07 00:00:50;;;;;;;46.78;26.00;;;1.00;98.70;;;;;;6375567;27;20083;-76
2021/01/07 00:03:51;;;;;;;43.53;25.05;;;0.80;98.20;;;;;;6374957;27;20075;-77
2021/01/07 00:06:52;;;;;;;52.42;27.42;;;0.90;98.60;;;;;;6375387;27;20046;-78
2021/01/07 00:09:52;;;;;;;42.15;23.92;;;0.50;99.90;;;;;;6375210;27;20102;-77
2021/01/07 00:12:53;;;;;;;42.35;24.30;;;0.60;99.90;;;;;;6375196;27;20027;-76
2021/01/07 00:15:54;;;;;;;41.25;22.67;;;0.80;98.80;;;;;;6375136;27;20022;-76
2021/01/07 00:18:54;;;;;;;41.67;24.55;;;0.90;98.10;;;;;;6356787;27;20091;-77
2021/01/07 00:21:55;;;;;;;45.08;24.30;;;0.70;98.70;;;;;;6356501;27;20050;-78
2021/01/07 00:24:55;;;;;;;41.13;24.52;;;1.70;98.30;;;;;;6374782;27;20058;-76
2021/01/07 00:27:56;;;;;;;41.97;23.95;;;1.20;98.80;;;;;;6374797;27;20472;-78
2021/01/07 00:30:57;;;;;;;47.05;26.52;;;1.40;98.90;;;;;;6374551;27;20094;-76
2021/01/07 00:33:57;;;;;;;44.55;26.20;;;0.80;98.00;;;;;;6374783;27;20024;-76
2021/01/07 00:36:58;;;;;;;47.72;28.98;;;1.00;98.70;;;;;;6374566;27;20023;-77
2021/01/07 00:39:59;;;;;;;49.33;27.23;;;1.80;98.30;;;;;;6374792;27;20059;-77
2021/01/07 00:42:59;;;;;;;45.00;25.42;;;0.80;98.60;;;;;;6374592;27;20019;-78
2021/01/07 00:46:00;;;;;;;46.65;25.40;;;0.60;99.90;;;;;;6374428;27;20026;-78
2021/01/07 00:49:00;;;;;;;42.92;22.67;;;0.70;99.90;;;;;;6374506;27;20027;-78
2021/01/07 00:52:01;;;;;;;43.65;24.17;;;0.60;98.50;;;;;;6374138;27;20036;-78
2021/01/07 00:55:02;;;;;;;42.35;24.08;;;0.60;97.90;;;;;;6355873;27;20019;-76
2021/01/07 00:58:07;;;;;;;43.22;25.40;;;0.60;98.60;;;;;;6373908;27;20027;-76
2021/01/07 01:01:07;;;;;;;44.53;24.52;;;0.50;99.90;;;;;;6373867;27;20372;-79
2021/01/07 01:04:08;;;;;;;43.00;23.58;;;2.00;99.20;;;;;;6373963;27;20035;-76
2021/01/07 01:07:08;;;;;;;49.85;27.30;;;1.10;99.00;;;;;;6373984;27;20079;-79
2021/01/07 01:10:10;;;;;;;39.83;23.98;;;0.80;98.40;;;;;;6373780;27;20451;-77
2021/01/07 01:13:11;;;;;;;43.67;24.25;;;0.50;98.70;;;;;;6373818;27;20019;-77
2021/01/07 01:16:11;;;;;;;44.70;25.42;;;1.00;98.40;;;;;;6373716;27;20080;-76
2021/01/07 01:19:12;;;;;;;45.92;26.15;;;0.70;99.00;;;;;;6373441;27;20027;-77
2021/01/07 01:22:13;;;;;;;43.03;23.92;;;0.70;99.90;;;;;;6373290;27;20191;-76
2021/01/07 01:25:14;;;;;;;43.85;25.90;;;2.00;98.50;;;;;;6373327;27;20427;-76
2021/01/07 01:28:14;;;;;;;38.92;23.50;;;0.60;98.70;;;;;;6373324;27;20490;-78
2021/01/07 01:31:15;;;;;;;39.58;23.70;;;0.70;98.30;;;;;;6373179;27;20015;-76
2021/01/07 01:34:16;;;;;;;42.22;25.60;;;1.60;99.20;;;;;;6372939;27;20090;-76
2021/01/07 01:37:17;;;;;;;40.08;22.90;;;0.40;99.90;;;;;;6373063;27;20106;-76
2021/01/07 01:40:17;;;;;;;43.13;24.33;;;2.00;99.90;;;;;;6373363;27;20053;-77
2021/01/07 01:43:18;;;;;;;43.05;24.45;;;1.00;98.80;;;;;;6373108;27;20019;-76
2021/01/07 01:46:19;;;;;;;37.22;22.33;;;0.80;98.10;;;;;;6373023;27;20492;-76
2021/01/07 01:49:19;;;;;;;40.45;23.65;;;0.70;98.80;;;;;;6373245;27;20387;-76
2021/01/07 01:52:21;;;;;;;43.55;23.35;;;1.10;98.30;;;;;;6372906;27;20094;-76
2021/01/07 01:55:21;;;;;;;39.47;22.10;;;0.90;98.70;;;;;;6373048;27;20023;-77
2021/01/07 01:58:22;;;;;;;41.95;23.25;;;0.30;99.90;;;;;;6337513;27;20031;-75
2021/01/07 02:01:23;;;;;;;42.10;23.70;;;0.70;99.90;;;;;;6372753;27;20449;-77
2021/01/07 02:04:23;;;;;;;36.63;23.08;;;1.50;98.90;;;;;;6372847;27;20047;-77
2021/01/07 02:07:25;;;;;;;43.78;23.67;;;0.50;98.00;;;;;;6372941;28;20050;-76
2021/01/07 02:10:25;;;;;;;40.88;22.48;;;0.70;98.90;;;;;;6354319;28;20030;-76
2021/01/07 02:13:26;;;;;;;37.30;22.92;;;0.70;99.90;;;;;;6337788;28;20019;-77
2021/01/07 02:16:27;;;;;;;40.00;23.02;;;1.10;99.90;;;;;;6354517;28;20023;-77
2021/01/07 02:19:27;;;;;;;42.10;23.98;;;0.90;99.10;;;;;;6372545;27;20019;-76
2021/01/07 02:22:28;;;;;;;39.28;23.60;;;2.00;98.60;;;;;;6372790;28;20035;-78
2021/01/07 02:25:28;;;;;;;42.03;23.10;;;2.10;99.20;;;;;;6372571;27;20079;-78
2021/01/07 02:28:29;;;;;;;38.72;22.35;;;2.50;98.70;;;;;;6372653;28;20073;-76
2021/01/07 02:31:30;;;;;;;42.70;23.45;;;0.70;98.80;;;;;;6354096;28;20032;-78
2021/01/07 02:34:30;;;;;;;40.28;21.35;;;2.00;99.20;;;;;;6372490;28;20027;-76
2021/01/07 02:37:31;;;;;;;37.85;21.38;;;0.80;98.20;;;;;;6372395;28;20505;-78
2021/01/07 02:40:32;;;;;;;37.78;20.92;;;0.80;98.80;;;;;;6372223;27;20041;-76
2021/01/07 02:43:32;;;;;;;41.42;23.50;;;0.90;98.40;;;;;;6354169;27;20031;-76
2021/01/07 02:46:33;;;;;;;38.03;22.95;;;1.20;99.00;;;;;;6375842;27;20051;-77
2021/01/07 02:49:33;;;;;;;39.78;23.45;;;0.60;99.90;;;;;;6377239;27;20026;-77
2021/01/07 02:52:34;;;;;;;40.55;22.83;;;0.80;98.10;;;;;;6376996;27;20023;-77
2021/01/07 02:55:35;;;;;;;39.03;22.25;;;0.80;98.80;;;;;;6377163;27;20501;-77
2021/01/07 02:58:35;;;;;;;40.70;22.13;;;0.80;98.10;;;;;;6376841;27;20713;-76
2021/01/07 03:01:36;;;;;;;41.78;22.65;;;2.00;99.10;;;;;;6376783;27;20027;-76
2021/01/07 03:04:36;;;;;;;37.92;23.45;;;0.50;99.90;;;;;;6376570;27;20039;-77
2021/01/07 03:07:37;;;;;;;37.47;22.90;;;1.70;99.90;;;;;;6376843;27;20467;-76
2021/01/07 03:10:38;;;;;;;36.40;21.35;;;2.00;99.10;;;;;;6376729;27;20019;-77
2021/01/07 03:13:38;;;;;;;38.42;21.98;;;1.20;98.20;;;;;;6376620;27;20023;-77
2021/01/07 03:16:39;;;;;;;37.90;21.65;;;0.70;98.70;;;;;;6376649;27;20024;-77
2021/01/07 03:19:40;;;;;;;37.30;20.90;;;0.90;98.10;;;;;;6376737;27;20406;-76
2021/01/07 03:22:41;;;;;;;41.10;23.35;;;0.90;98.60;;;;;;6376331;27;20093;-77
2021/01/07 03:25:42;;;;;;;37.72;21.52;;;0.90;99.90;;;;;;6376241;27;20029;-76
2021/01/07 03:28:43;;;;;;;41.90;22.67;;;2.00;98.30;;;;;;6376129;27;20027;-76
2021/01/07 03:31:43;;;;;;;36.72;21.40;;;0.80;98.70;;;;;;6376111;27;20131;-78
2021/01/07 03:34:44;;;;;;;38.38;22.13;;;1.90;98.30;;;;;;6376668;27;20050;-76
2021/01/07 03:37:44;;;;;;;38.53;22.48;;;2.00;98.90;;;;;;6376099;27;20471;-78
2021/01/07 03:40:45;;;;;;;43.00;23.02;;;0.60;99.90;;;;;;6375862;27;20080;-78
2021/01/07 03:43:46;;;;;;;40.95;22.73;;;1.80;99.90;;;;;;6375929;27;20026;-77
2021/01/07 03:46:46;;;;;;;37.17;22.05;;;0.70;98.70;;;;;;6375795;27;20023;-78
2021/01/07 03:49:47;;;;;;;43.15;22.42;;;1.00;98.00;;;;;;6375623;27;20094;-78
2021/01/07 03:52:47;;;;;;;43.55;24.48;;;2.30;99.00;;;;;;6375597;27;20042;-76
2021/01/07 03:55:48;;;;;;;40.67;22.38;;;1.20;98.20;;;;;;6375377;27;20027;-76
2021/01/07 03:58:49;;;;;;;40.88;23.27;;;0.90;98.80;;;;;;6375442;27;20031;-76
2021/01/07 04:01:50;;;;;;;43.92;22.73;;;0.50;99.90;;;;;;6375115;27;20460;-77
2021/01/07 04:04:50;;;;;;;40.05;22.83;;;1.20;98.30;;;;;;6375526;27;20050;-77
2021/01/07 04:07:51;;;;;;;40.97;22.08;;;0.70;98.70;;;;;;6375405;27;20114;-77
2021/01/07 04:10:52;;;;;;;40.08;23.85;;;1.60;98.30;;;;;;6375483;27;20031;-76
2021/01/07 04:13:52;;;;;;;40.17;22.15;;;1.00;98.90;;;;;;6375067;27;20030;-77
2021/01/07 04:16:53;;;;;;;39.95;21.73;;;0.80;99.90;;;;;;6375096;27;20395;-76
2021/01/07 04:19:53;;;;;;;36.17;21.08;;;0.70;98.20;;;;;;6356479;27;20106;-78
2021/01/07 04:22:54;;;;;;;40.42;22.42;;;1.00;99.00;;;;;;6375334;27;20019;-76
2021/01/07 04:25:54;;;;;;;37.28;21.35;;;0.60;98.30;;;;;;6374881;27;20026;-76
2021/01/07 04:28:55;;;;;;;40.08;22.40;;;1.00;99.10;;;;;;6356652;27;20023;-78
2021/01/07 04:31:56;;;;;;;39.83;21.83;;;;;;;;;;6374600;27;20025;-77
2021/01/07 04:34:57;;;;;;;36.75;20.50;;;0.50;99.90;;;;;;6374536;27;20023;-78
2021/01/07 04:37:57;;;;;;;37.28;21.65;;;0.80;99.00;;;;;;6374675;27;20030;-76
2021/01/07 04:40:58;;;;;;;37.38;21.13;;;0.80;98.40;;;;;;6374370;27;20103;-78
2021/01/07 04:43:59;;;;;;;43.80;21.75;;;1.30;99.10;;;;;;6374406;27;20053;-77
2021/01/07 04:46:59;;;;;;;39.40;21.98;;;0.60;98.30;;;;;;6374640;27;20372;-76
2021/01/07 04:50:00;;;;;;;38.05;21.63;;;1.70;99.30;;;;;;6355956;27;20114;-77
2021/01/07 04:53:01;;;;;;;35.10;20.65;;;0.40;99.90;;;;;;6355829;27;20069;-77
2021/01/07 04:56:01;;;;;;;40.28;21.77;;;0.80;98.40;;;;;;6374088;27;20045;-76
2021/01/07 04:59:02;;;;;;;39.08;21.67;;;0.80;99.00;;;;;;6355683;27;20063;-76
2021/01/07 05:02:03;;;;;;;39.17;21.10;;;0.50;98.30;;;;;;6373673;27;20366;-76
2021/01/07 05:05:07;;;;;;;36.17;21.75;;;0.30;98.90;;;;;;6373808;27;20418;-76
2021/01/07 05:08:07;;;;;;;41.45;22.30;;;0.60;99.90;;;;;;6373145;27;20102;-77
2021/01/07 05:11:08;;;;;;;44.08;22.30;;;0.80;99.90;;;;;;6373833;27;20031;-76
2021/01/07 05:14:10;;;;;;;42.30;22.88;;;0.60;99.10;;;;;;6373550;27;20510;-76
2021/01/07 05:17:13;;;;;;;41.95;21.52;;;0.60;98.50;;;;;;6373691;27;20019;-77
2021/01/07 05:20:14;;;;;;;39.67;21.05;;;1.00;99.20;;;;;;6373320;27;20031;-77
2021/01/07 05:23:15;;;;;;;38.60;21.77;;;0.50;98.50;;;;;;6373689;27;20445;-77
2021/01/07 05:26:17;;;;;;;39.20;22.17;;;0.60;99.10;;;;;;6338105;27;20440;-76
2021/01/07 05:29:18;;;;;;;;;;;1.90;99.30;;;;;;6355602;27;20019;-76
2021/01/07 05:32:18;;;;;;;41.38;22.05;;;0.70;98.60;;;;;;6373928;27;19956;-76
2021/01/07 05:35:19;;;;;;;41.40;21.98;;;0.80;99.10;;;;;;6338040;27;20033;-78
2021/01/07 05:38:20;;;;;;;37.45;21.20;;;0.80;98.50;;;;;;6373532;27;20019;-76
2021/01/07 05:41:22;;;;;;;38.08;21.65;;;2.30;99.40;;;;;;6373361;27;20133;-76
2021/01/07 05:44:23;;;;;;;35.65;20.23;;;1.90;99.30;;;;;;6374041;27;20023;-76
2021/01/07 05:47:30;;;;;;;37.55;21.85;;;1.90;98.50;;;;;;6373471;27;20027;-76
2021/01/07 05:50:36;;;;;;;38.75;22.77;;;0.70;99.00;;;;;;6373421;27;20026;-77
2021/01/07 05:53:36;;;;;;;41.70;22.40;;;0.70;98.40;;;;;;6373286;27;20026;-76
2021/01/07 05:56:37;;;;;;;40.38;23.33;;;0.50;98.90;;;;;;6338029;27;20023;-77
2021/01/07 05:59:37;;;;;;;39.40;21.38;;;0.40;98.90;;;;;;6354803;28;20066;-76
2021/01/07 06:02:39;;;;;;;40.33;22.65;;;0.60;99.90;;;;;;6337481;27;20070;-76
2021/01/07 06:05:40;;;;;;;43.17;23.57;;;0.80;98.90;;;;;;6373206;27;20072;-76
2021/01/07 06:08:42;;;;;;;38.53;22.63;;;0.90;98.30;;;;;;6373038;28;20454;-76
2021/01/07 06:11:42;;;;;;;40.33;21.80;;;1.70;99.20;;;;;;6337855;28;20024;-76
2021/01/07 06:14:43;;;;;;;34.53;21.48;;;0.90;98.20;;;;;;6354493;28;20026;-76
2021/01/07 06:17:44;;;;;;;36.22;22.25;;;0.70;99.90;;;;;;6354749;28;20349;-77
2021/01/07 06:20:44;;;;;;;38.28;21.90;;;0.90;99.00;;;;;;6376784;27;20031;-76
2021/01/07 06:23:46;;;;;;;36.35;22.05;;;1.10;98.50;;;;;;6342944;27;20035;-76
2021/01/07 06:26:47;;;;;;;41.38;22.60;;;0.50;98.90;;;;;;6378002;27;20105;-77
2021/01/07 06:29:48;;;;;;;37.58;21.85;;;0.90;98.50;;;;;;6377833;27;20022;-76
2021/01/07 06:33:03;;;;;;;37.45;22.27;;;0.70;99.00;;;;;;6378018;27;20030;-76
2021/01/07 06:36:06;;;;;;;36.22;20.33;;;1.00;99.30;;;;;;6359740;27;20503;-76
2021/01/07 06:39:07;;;;;;;41.13;21.05;;;0.40;98.30;;;;;;6377783;27;20030;-77
2021/01/07 06:42:08;;;;;;;33.92;20.98;;;1.60;97.90;;;;;;6377558;27;20027;-76
2021/01/07 06:45:12;;;;;;;39.00;22.75;;;0.40;97.00;;;;;;6359236;27;20076;-77
2021/01/07 06:48:13;;;;;;;36.53;22.42;;;0.40;96.40;;;;;;6377413;27;20547;-77
2021/01/07 06:51:13;;;;;;;40.80;21.83;;;0.50;99.90;;;;;;6377595;27;20031;-76
2021/01/07 06:54:15;;;;;;;38.50;21.73;;;2.00;97.60;;;;;;6342004;27;20506;-76
2021/01/07 06:57:16;;;;;;;41.70;23.08;;;0.80;97.50;;;;;;6359225;27;20027;-77
2021/01/07 07:00:17;;;;;;;36.10;20.52;;;0.60;99.90;;;;;;6377052;27;20035;-78
2021/01/07 07:03:18;;;;;;;36.83;20.02;;;0.60;97.10;;;;;;6377236;27;20043;-76
2021/01/07 07:06:21;;;;;;;36.45;20.65;;;0.40;99.90;;;;;;6376932;27;20019;-76
2021/01/07 07:09:21;;;;;;;34.90;21.10;;;1.90;99.90;;;;;;6377136;27;20147;-77
2021/01/07 07:12:30;;;;;;;33.92;20.48;;;0.70;97.20;;;;;;6341657;27;20045;-77
2021/01/07 07:15:30;;;;;;;35.67;21.17;;;1.80;96.90;;;;;;6376953;27;20026;-76
2021/01/07 07:18:32;;;;;;;39.50;20.67;;;1.60;97.40;;;;;;6341458;27;20031;-76
2021/01/07 07:21:32;;;;;;;37.35;21.85;;;0.60;96.30;;;;;;6376331;27;20034;-77
2021/01/07 07:24:34;;;;;;;37.63;20.83;;;0.60;97.10;;;;;;6358297;27;20031;-76
2021/01/07 07:27:54;;;;;;;38.00;21.90;;;0.70;97.20;;;;;;6376523;27;20027;-76
2021/01/07 07:30:54;;;;;;;37.95;21.30;;;0.90;96.70;;;;;;6375809;27;20067;-76
2021/01/07 07:34:00;;;;;;;42.00;22.25;;;0.70;97.00;;;;;;6376534;27;20476;-77
2021/01/07 07:37:00;;;;;;;39.75;23.38;;;0.60;96.50;;;;;;6376480;27;20034;-76
2021/01/07 07:40:02;;;;;;;40.00;23.13;;;1.80;97.40;;;;;;6376178;27;20027;-76
2021/01/07 07:43:04;;;;;;;38.88;21.60;;;0.50;96.90;;;;;;6376350;27;20034;-76
2021/01/07 07:46:06;;;;;;;32.47;20.17;;;1.50;96.60;;;;;;6357642;27;20472;-77
2021/01/07 07:49:10;;;;;;;38.78;20.23;;;0.70;97.00;;;;;;6375978;27;20265;-78
2021/01/07 07:52:10;;;;;;;38.13;21.70;;;0.40;96.40;;;;;;6375985;27;20469;-77
2021/01/07 07:55:11;;;;;;;41.00;22.67;;;1.90;97.50;;;;;;6375889;27;20015;-77
2021/01/07 07:58:16;;;;;;;36.13;20.77;;;0.30;99.90;;;;;;6375689;27;20057;-77
2021/01/07 08:01:16;;;;;;;38.63;21.83;;;0.80;99.90;;;;;;6375469;27;20052;-76
2021/01/07 08:04:18;;;;;;;45.60;23.52;;;1.80;97.50;;;;;;6357258;27;20112;-76
2021/01/07 08:07:19;;;;;;;41.28;23.88;;;0.60;96.20;;;;;;6375348;27;20023;-76
2021/01/07 08:10:20;;;;;;;45.10;27.42;;;1.90;97.10;;;;;;6375743;27;20031;-77
2021/01/07 08:13:26;;;;;;;67.15;36.30;;;0.70;99.90;;;;;;6375281;27;20024;-76
2021/01/07 08:16:27;;;;;;;49.13;28.75;;;1.00;96.00;;;;;;6375544;27;20449;-76
2021/01/07 08:19:34;;;;;;;47.05;26.05;;;0.80;96.70;;;;;;6339971;27;20079;-77
2021/01/07 08:22:35;;;;;;;52.08;28.83;;;2.10;96.30;;;;;;6375299;27;20031;-76
2021/01/07 08:25:36;;;;;;;52.75;27.90;;;0.60;96.70;;;;;;6356816;27;20460;-77
2021/01/07 08:28:37;;;;;;;49.28;28.73;;;0.60;99.90;;;;;;6375058;27;20023;-77
2021/01/07 08:31:41;;;;;;;47.53;26.90;;;1.50;99.90;;;;;;6356605;27;20081;-76
2021/01/07 08:34:41;;;;;;;52.67;25.83;;;1.10;96.70;;;;;;6340176;27;20031;-76
2021/01/07 08:37:43;;;;;;;42.25;23.95;;;1.40;96.30;;;;;;6356649;27;20068;-78
2021/01/07 08:40:43;;;;;;;46.88;26.08;;;2.20;96.90;;;;;;6374623;27;20035;-76
2021/01/07 08:43:46;;;;;;;43.17;24.33;;;1.50;95.90;;;;;;6373714;27;20034;-76
2021/01/07 08:46:49;;;;;;;48.30;28.15;;;1.00;96.30;;;;;;6374495;27;20035;-76
2021/01/07 08:50:04;;;;;;;49.97;27.80;;;2.20;96.40;;;;;;6374639;27;20022;-76
2021/01/07 08:53:08;;;;;;;52.20;29.30;;;0.90;95.40;;;;;;6374367;27;20058;-76
2021/01/07 08:56:09;;;;;;;58.20;33.75;;;1.30;96.00;;;;;;6374456;27;20029;-76
2021/01/07 08:59:20;;;;;;;55.15;31.38;;;1.90;95.40;;;;;;6355998;27;20015;-77
2021/01/07 09:02:20;;;;;;;57.80;30.50;;;0.90;99.90;;;;;;6355945;27;20035;-76
2021/01/07 09:05:21;;;;;;;49.88;29.20;;;1.10;95.60;;;;;;6374376;27;20024;-77
2021/01/07 09:08:22;;;;;;;49.85;27.52;;;2.20;95.20;;;;;;6374322;27;20035;-76
2021/01/07 09:11:26;;;;;;;39.10;22.60;;;2.70;95.90;;;;;;6374172;27;20057;-77
2021/01/07 09:14:27;;;;;;;39.53;25.10;;;1.30;94.60;;;;;;6374319;27;20026;-77
2021/01/07 09:17:42;;;;;;;47.95;26.95;;;1.80;95.20;;;;;;6373969;27;20046;-77
2021/01/07 09:20:43;;;;;;;53.78;30.67;;;1.30;93.80;;;;;;6373859;27;20027;-77
2021/01/07 09:23:47;;;;;;;38.92;24.40;;;2.60;94.60;;;;;;6373795;27;20479;-77
2021/01/07 09:26:48;;;;;;;41.35;23.95;;;2.00;94.60;;;;;;6373988;27;20016;-76
2021/01/07 09:29:48;;;;;;;46.15;25.02;;;1.70;93.80;;;;;;6373709;27;20066;-77
2021/01/07 09:32:49;;;;;;;35.95;23.15;;;1.90;94.30;;;;;;6373543;27;20019;-77
2021/01/07 09:35:49;;;;;;;39.88;21.90;;;1.80;99.90;;;;;;6373509;27;20027;-77
2021/01/07 09:38:50;;;;;;;39.25;23.52;;;2.90;93.70;;;;;;6373432;27;20075;-77
2021/01/07 09:41:50;;;;;;;39.13;23.52;;;3.10;94.10;;;;;;6355040;27;20030;-77
2021/01/07 09:44:51;;;;;;;38.28;23.63;;;2.70;93.30;;;;;;6373351;27;20441;-77
2021/01/07 09:47:52;;;;;;;42.78;25.05;;;2.50;93.80;;;;;;6373478;27;20102;-77
2021/01/07 09:50:52;;;;;;;44.70;26.10;;;2.20;99.90;;;;;;6373179;27;20034;-76
2021/01/07 09:53:53;;;;;;;38.83;23.98;;;2.20;99.30;;;;;;6372779;27;20019;-76
2021/01/07 09:56:54;;;;;;;41.42;25.02;;;3.30;93.50;;;;;;6373285;27;20369;-78
2021/01/07 09:59:55;;;;;;;36.67;24.17;;;3.00;92.70;;;;;;6372997;27;20023;-77
2021/01/07 10:02:56;;;;;;;37.55;23.40;;;2.30;98.60;;;;;;6372879;27;20046;-78
2021/01/07 10:05:56;;;;;;;40.60;26.70;;;3.50;92.40;;;;;;6373020;27;20023;-77
2021/01/07 10:08:57;;;;;;;35.15;21.65;;;3.40;93.20;;;;;;6372941;27;20031;-77
2021/01/07 10:12:00;;;;;;;58.83;38.42;;;3.10;93.00;;;;;;6372728;27;20030;-76
2021/01/07 10:15:01;;;;;;;43.63;26.42;;;2.70;92.40;;;;;;6354792;28;20102;-78
2021/01/07 10:18:02;;;;;;;46.22;28.65;;;3.40;92.70;;;;;;6354441;28;20054;-76
2021/01/07 10:21:02;;;;;;;49.30;35.08;;;2.90;92.10;;;;;;6372902;28;20388;-77
2021/01/07 10:24:05;;;;;;;38.65;26.65;;;2.50;92.40;;;;;;6337598;28;20080;-77
2021/01/07 10:27:06;;;;;;;40.92;28.42;;;2.40;99.90;;;;;;6354827;27;20028;-77
2021/01/07 10:30:08;;;;;;;47.10;30.38;;;3.50;93.00;;;;;;6372648;28;20034;-76
2021/01/07 10:33:08;;;;;;;43.45;23.52;;;2.70;92.00;;;;;;6372504;27;20027;-77
2021/01/07 10:36:09;;;;;;;35.33;21.95;;;3.50;92.00;;;;;;6354378;28;20023;-78
2021/01/07 10:39:10;;;;;;;34.63;20.83;;;3.90;92.50;;;;;;6372632;27;20068;-76
2021/01/07 10:42:12;;;;;;;31.25;20.73;;;3.50;91.60;;;;;;6354475;28;20039;-76
2021/01/07 10:45:13;;;;;;;33.67;19.38;;;3.30;92.30;;;;;;6372524;27;20015;-77
2021/01/07 10:48:14;;;;;;;33.45;20.10;;;2.80;92.00;;;;;;6354293;28;20039;-77
2021/01/07 10:51:15;;;;;;;26.35;17.35;;;3.70;91.20;;;;;;6337254;28;20076;-76
2021/01/07 10:54:25;;;;;;;27.58;17.05;;;3.10;91.40;;;;;;6354423;28;20027;-76
2021/01/07 10:57:51;;;;;;;28.40;19.30;;;3.60;91.00;;;;;;6338099;28;20053;-77
2021/01/07 11:01:06;;;;;;;26.05;18.00;;;3.50;97.80;;;;;;6372608;28;20027;-77
2021/01/07 11:04:28;;;;;;;25.08;16.42;;;2.90;90.40;;;;;;6372269;27;20056;-76
2021/01/07 11:07:46;;;;;;;30.50;18.75;;;2.90;89.10;;;;;;6375545;27;20019;-77
2021/01/07 11:10:50;;;;;;;25.67;18.15;;;3.00;89.80;;;;;;6377036;27;20082;-77
2021/01/07 11:14:07;;;;;;;27.42;17.77;;;3.10;91.30;;;;;;6376838;27;20054;-78
2021/01/07 11:17:13;;;;;;;26.95;18.33;;;2.90;89.10;;;;;;6376790;27;20051;-77
2021/01/07 11:20:31;;;;;;;28.17;17.67;;;2.90;90.40;;;;;;6358756;27;20035;-77
2021/01/07 11:23:32;;;;;;;26.05;17.55;;;;;;;;;;6358525;27;20492;-77
2021/01/07 11:26:33;;;;;;;26.88;16.65;;;3.10;95.80;;;;;;6358659;27;20038;-77
2021/01/07 11:29:34;;;;;;;24.73;16.65;;;3.60;90.90;;;;;;6376447;27;20109;-77
2021/01/07 11:32:37;;;;;;;25.40;17.15;;;3.60;90.60;;;;;;6376548;27;20106;-78
2021/01/07 11:35:40;;;;;;;22.38;15.75;;;4.10;91.20;;;;;;6376318;27;20427;-78
2021/01/07 11:38:48;;;;;;;25.40;16.70;;;4.20;89.60;;;;;;6341386;27;20410;-77
2021/01/07 11:42:09;;;;;;;23.90;15.40;;;4.40;90.50;;;;;;6376080;27;20453;-77
2021/01/07 11:45:31;;;;;;;23.33;15.40;;;4.00;89.50;;;;;;6358392;27;20023;-76
2021/01/07 11:48:32;;;;;;;24.42;15.65;;;3.50;85.40;;;;;;6358946;27;20031;-77
2021/01/07 11:51:32;;;;;;;25.05;15.95;;;4.00;90.40;;;;;;6376140;27;20042;-78
2021/01/07 11:54:36;;;;;;;20.17;13.65;;;3.20;99.90;;;;;;6375787;27;20023;-77
2021/01/07 11:57:37;;;;;;;20.02;13.93;;;4.10;88.10;;;;;;6375728;27;20054;-77
2021/01/07 12:00:37;;;;;;;21.45;14.70;;;4.20;89.10;;;;;;6340252;27;20042;-77
2021/01/07 12:03:38;;;;;;;20.42;14.32;;;4.60;88.10;;;;;;6340259;27;20581;-77
2021/01/07 12:06:41;;;;;;;18.88;13.40;;;4.40;88.50;;;;;;6375562;27;20027;-78
2021/01/07 12:09:42;;;;;;;20.10;13.40;;;3.60;99.90;;;;;;6357692;27;20027;-78
2021/01/07 12:12:47;;;;;;;17.63;13.25;;;4.00;94.50;;;;;;6375441;27;20031;-77
2021/01/07 12:15:50;;;;;;;20.33;14.50;;;4.40;87.80;;;;;;6340433;27;20020;-77
2021/01/07 12:18:50;;;;;;;18.90;13.30;;;4.40;87.90;;;;;;6374968;27;20094;-76
2021/01/07 12:21:51;;;;;;;22.60;15.30;;;4.20;90.10;;;;;;6375472;27;20057;-77
2021/01/07 12:24:52;;;;;;;19.55;14.50;;;4.40;87.40;;;;;;6357099;27;20058;-77
2021/01/07 12:27:52;;;;;;;19.10;13.13;;;4.40;88.00;;;;;;6375076;27;20015;-77
2021/01/07 12:30:53;;;;;;;21.10;14.80;;;4.60;87.80;;;;;;6375091;27;20449;-78
2021/01/07 12:34:07;;;;;;;19.73;14.25;;;4.70;87.10;;;;;;6339778;27;20023;-78
2021/01/07 12:37:16;;;;;;;18.48;13.82;;;4.60;88.60;;;;;;6375199;27;20449;-77
2021/01/07 12:40:18;;;;;;;17.65;13.95;;;4.50;87.60;;;;;;6356388;27;20079;-77
2021/01/07 12:43:19;;;;;;;18.90;13.88;;;4.70;88.90;;;;;;6374698;27;20030;-77
2021/01/07 12:46:22;;;;;;;18.45;13.85;;;4.60;88.60;;;;;;6356275;27;20307;-79
2021/01/07 12:49:23;;;;;;;23.58;16.58;;;5.00;86.60;;;;;;6374899;27;20031;-77
2021/01/07 12:52:26;;;;;;;21.73;14.93;;;4.10;87.50;;;;;;6374446;27;20379;-79
2021/01/07 12:55:27;;;;;;;23.55;15.75;;;4.70;88.00;;;;;;6356090;27;20019;-77
2021/01/07 12:58:28;;;;;;;24.48;15.48;;;4.30;89.00;;;;;;6374272;27;20105;-77
2021/01/07 13:01:42;;;;;;;21.63;13.15;;;3.90;99.90;;;;;;6374353;27;20095;-77
2021/01/07 13:04:53;;;;;;;20.83;15.30;;;4.10;83.90;;;;;;6339872;27;20051;-78
2021/01/07 13:07:57;;;;;;;19.23;14.52;;;4.40;88.70;;;;;;6374158;27;20054;-78
2021/01/07 13:10:59;;;;;;;22.02;15.20;;;4.80;88.30;;;;;;6356161;27;20106;-77
2021/01/07 13:14:01;;;;;;;20.42;14.65;;;4.50;89.90;;;;;;6339313;27;20489;-79
2021/01/07 13:17:01;;;;;;;20.15;13.88;;;4.10;99.90;;;;;;6373888;27;20031;-77
2021/01/07 13:20:03;;;;;;;20.73;14.25;;;4.60;88.00;;;;;;6373616;27;20066;-77
2021/01/07 13:23:04;;;;;;;22.95;15.27;;;3.90;88.40;;;;;;6373738;27;20055;-77
2021/01/07 13:26:05;;;;;;;21.27;14.07;;;4.40;88.20;;;;;;6355323;27;20033;-78
2021/01/07 13:29:05;;;;;;;22.83;14.68;;;4.00;89.90;;;;;;6354611;27;20023;-79
2021/01/07 13:32:06;;;;;;;33.03;17.27;;;3.80;99.90;;;;;;6373380;27;20109;-77
2021/01/07 13:35:12;;;;;;;27.50;17.08;;;4.40;96.40;;;;;;6355445;27;20049;-77
2021/01/07 13:38:13;;;;;;;19.65;13.85;;;3.80;88.60;;;;;;6355456;27;20072;-77
2021/01/07 13:41:14;;;;;;;20.20;14.23;;;4.60;89.50;;;;;;6338469;27;20452;-78
2021/01/07 13:44:15;;;;;;;19.08;13.40;;;4.20;90.50;;;;;;6338412;27;20023;-77
2021/01/07 13:47:17;;;;;;;20.10;15.05;;;4.30;90.10;;;;;;6337964;27;20030;-77
2021/01/07 13:50:22;;;;;;;17.30;13.18;;;4.20;90.80;;;;;;6373032;27;20058;-77
2021/01/07 13:53:23;;;;;;;19.55;14.32;;;;;;;;;;6373178;27;20038;-77
2021/01/07 13:56:26;;;;;;;19.83;13.82;;;3.50;86.40;;;;;;6373002;27;20019;-77
2021/01/07 13:59:27;;;;;;;26.23;17.80;;;3.70;97.80;;;;;;6354694;27;20022;-78
2021/01/07 14:02:28;;;;;;;19.92;13.73;;;3.90;98.60;;;;;;6337641;27;20039;-79
2021/01/07 14:05:28;;;;;;;20.00;14.02;;;4.40;90.90;;;;;;6373166;27;20042;-78
2021/01/07 14:08:43;;;;;;;21.27;14.15;;;3.70;97.40;;;;;;6354795;28;20019;-77
2021/01/07 14:11:46;;;;;;;16.67;12.32;;;4.00;89.90;;;;;;6354607;28;20034;-76
2021/01/07 14:14:46;;;;;;;21.88;13.75;;;4.30;90.50;;;;;;6372964;27;20050;-77
2021/01/07 14:17:47;;;;;;;19.30;13.32;;;4.10;89.70;;;;;;6372983;27;20552;-77
2021/01/07 14:20:47;;;;;;;20.55;13.88;;;4.30;90.80;;;;;;6354449;28;20391;-77
2021/01/07 14:23:48;;;;;;;19.83;13.45;;;3.50;97.80;;;;;;6372862;28;20028;-77
2021/01/07 14:27:16;;;;;;;18.88;12.90;;;3.80;90.10;;;;;;6337335;28;20031;-77
2021/01/07 14:30:17;;;;;;;16.83;12.45;;;3.40;90.00;;;;;;6372684;27;20054;-77
2021/01/07 14:33:19;;;;;;;17.52;11.82;;;3.20;90.00;;;;;;6337421;28;20076;-77
2021/01/07 14:36:20;;;;;;;18.70;12.27;;;4.20;91.40;;;;;;6372325;27;20020;-77
2021/01/07 14:39:21;;;;;;;22.65;13.93;;;3.20;99.20;;;;;;6372595;27;20019;-78
2021/01/07 14:42:22;;;;;;;19.80;14.18;;;3.60;91.30;;;;;;6359210;27;20058;-77
2021/01/07 14:45:23;;;;;;;23.30;14.23;;;3.70;92.60;;;;;;6359005;27;20310;-77
2021/01/07 14:48:29;;;;;;;22.05;14.63;;;3.70;92.30;;;;;;6377379;27;20023;-78
2021/01/07 14:51:30;;;;;;;24.95;16.45;;;3.40;93.30;;;;;;6377228;27;20439;-79
2021/01/07 14:54:32;;;;;;;23.85;15.98;;;2.80;99.40;;;;;;6359240;27;20026;-78
2021/01/07 14:57:39;;;;;;;26.63;16.52;;;3.90;92.80;;;;;;6377179;27;20406;-78
2021/01/07 15:00:52;;;;;;;23.77;15.93;;;2.80;92.30;;;;;;6377297;27;20027;-77
2021/01/07 15:04:23;;;;;;;21.88;14.48;;;3.00;93.30;;;;;;6376665;27;20068;-77
2021/01/07 15:07:29;;;;;;;26.63;15.68;;;2.70;92.80;;;;;;6377137;27;20058;-77
2021/01/07 15:10:30;;;;;;;25.30;15.93;;;4.00;94.40;;;;;;6376988;27;20049;-77
2021/01/07 15:13:34;;;;;;;23.40;15.13;;;3.10;93.70;;;;;;6341637;27;20076;-77
2021/01/07 15:16:42;;;;;;;27.45;16.05;;;3.40;94.60;;;;;;6341534;27;20035;-77
2021/01/07 15:19:44;;;;;;;24.20;15.50;;;3.70;94.00;;;;;;6376727;27;20482;-77
2021/01/07 15:23:09;;;;;;;25.02;15.95;;;2.90;94.20;;;;;;6376548;27;20373;-77
2021/01/07 15:26:11;;;;;;;23.05;15.05;;;4.10;94.50;;;;;;6324288;27;20058;-77
2021/01/07 15:29:17;;;;;;;34.45;20.27;;;3.70;93.30;;;;;;6358111;27;20049;-77
2021/01/07 15:32:31;;;;;;;24.20;16.05;;;3.20;94.00;;;;;;6376478;27;20106;-77
2021/01/07 15:35:33;;;;;;;25.45;15.90;;;2.30;99.60;;;;;;6376311;27;20102;-78
2021/01/07 15:39:01;;;;;;;23.52;15.85;;;2.90;99.90;;;;;;6358109;27;20501;-77